Time;durP1;ratioP1;P1;durP2;ratioP2;P2;SDS_P1;SDS_P2;PMS_P1;PMS_P2;Temp;Humidity;BMP_temperature;BMP_pressure;BME280_temperature;BME280_humidity;BME280_pressure;Samples;Min_cycle;Max_cycle;Signal;HPM_P1;HPM_P2
2021/04/10 00:02:24;;;;;;;;;;;;;;;5.10;62.78;102618.33;1715390;84;20536;-70
2021/04/10 00:04:56;;;;;;;;;;;;;;;5.05;62.88;102616.11;1726130;82;20276;-70
2021/04/10 00:07:27;;;;;;;;;;;;;;;5.04;62.74;102617.66;1715291;83;20248;-70
2021/04/10 00:09:59;;;;;;;;;;;;;;;5.02;62.71;102618.37;1715398;84;20537;-69
2021/04/10 00:12:30;;;;;;;;;;;;;;;4.99;62.83;102614.58;1715634;84;20500;-69
2021/04/10 00:15:05;;;;;;;;;;;;;;;4.97;62.85;102619.41;1715221;84;20544;-68
2021/04/10 00:17:36;;;;;;;;;;;;;;;4.92;62.96;102616.31;1715579;84;20516;-69
2021/04/10 00:20:13;;;;;;;;;;;;;;;4.82;63.11;102622.02;1715251;84;20232;-70
2021/04/10 00:22:45;;;;;;;;;;;;;;;4.77;63.40;102623.59;1719066;82;20293;-69
2021/04/10 00:25:16;;;;;;;;;;;;;;;4.74;63.49;102620.67;1724084;83;20268;-68
2021/04/10 00:27:49;;;;;;;;;;;;;;;4.75;63.58;102619.64;1715352;84;20267;-70
2021/04/10 00:30:21;;;;;;;;;;;;;;;4.74;63.58;102618.42;1715440;84;20255;-69
2021/04/10 00:32:54;;;;;;;;;;;;;;;4.75;63.74;102622.89;1715744;83;20288;-68
2021/04/10 00:35:28;;;;;;;;;;;;;;;4.77;63.74;102618.09;1727090;82;20293;-69
2021/04/10 00:37:59;;;;;;;;;;;;;;;4.80;63.76;102619.10;1723204;82;20256;-70
2021/04/10 00:40:30;;;;;;;;;;;;;;;4.75;63.82;102623.77;1734105;83;20253;-69
2021/04/10 00:43:02;;;;;;;;;;;;;;;4.66;64.08;102623.95;1735082;83;20194;-75
2021/04/10 00:45:34;;;;;;;;;;;;;;;4.63;64.21;102618.28;1735200;83;20253;-74
2021/04/10 00:48:06;;;;;;;;;;;;;;;4.63;64.11;102617.41;1726929;82;20261;-69
2021/04/10 00:50:37;;;;;;;;;;;;;;;4.59;64.05;102622.94;1715396;84;20192;-72
2021/04/10 00:53:09;;;;;;;;;;;;;;;4.50;64.13;102619.34;1715527;84;20180;-69
2021/04/10 00:55:42;;;;;;;;;;;;;;;4.49;64.24;102616.75;1741341;81;20245;-70
2021/04/10 00:58:14;;;;;;;;;;;;;;;4.47;64.25;102616.08;1744892;82;20183;-69
2021/04/10 01:00:45;;;;;;;;;;;;;;;4.49;64.30;102620.37;1744880;82;20214;-71
2021/04/10 01:03:17;;;;;;;;;;;;;;;4.45;64.37;102616.78;1744895;82;20225;-70
2021/04/10 01:05:49;;;;;;;;;;;;;;;4.51;64.31;102620.17;1744917;82;20285;-68
2021/04/10 01:08:20;;;;;;;;;;;;;;;4.59;64.22;102622.94;1745112;82;20257;-69
2021/04/10 01:10:52;;;;;;;;;;;;;;;4.64;64.11;102622.74;1745070;82;20298;-66
2021/04/10 01:13:44;;;;;;;;;;;;;;;4.68;63.97;102620.00;1744986;82;20170;-69
2021/04/10 01:16:21;;;;;;;;;;;;;;;4.67;63.80;102621.54;1744855;82;20258;-69
2021/04/10 01:19:00;;;;;;;;;;;;;;;4.60;63.79;102623.28;1734329;82;20513;-69
2021/04/10 01:21:51;;;;;;;;;;;;;;;4.55;64.05;102622.43;1722143;83;20514;-70
2021/04/10 01:24:38;;;;;;;;;;;;;;;4.53;64.11;102618.13;1715228;83;20263;-68
2021/04/10 01:27:25;;;;;;;;;;;;;;;4.49;64.23;102616.75;1707009;84;20565;-69
2021/04/10 01:30:10;;;;;;;;;;;;;;;4.43;64.52;102611.95;1701047;84;20219;-70
2021/04/10 01:32:50;;;;;;;;;;;;;;;4.38;64.56;102615.73;1715254;84;20302;-72
2021/04/10 01:35:23;;;;;;;;;;;;;;;4.35;64.65;102617.46;1715335;84;20331;-69
2021/04/10 01:37:57;;;;;;;;;;;;;;;4.30;64.68;102615.23;1715446;84;20291;-71
2021/04/10 01:40:32;;;;;;;;;;;;;;;4.25;65.00;102614.89;1712235;84;20609;-70
2021/04/10 01:43:05;;;;;;;;;;;;;;;4.29;65.13;102616.24;1715419;84;20219;-68
2021/04/10 01:45:36;;;;;;;;;;;;;;;4.37;65.02;102612.64;1715310;84;20597;-69
2021/04/10 01:48:10;;;;;;;;;;;;;;;4.44;64.84;102610.41;1715362;84;20544;-71
2021/04/10 01:50:42;;;;;;;;;;;;;;;4.48;64.72;102617.79;1713840;84;20193;-69
2021/04/10 01:53:15;;;;;;;;;;;;;;;4.41;64.75;102619.52;1709929;84;20220;-67
2021/04/10 01:55:50;;;;;;;;;;;;;;;4.33;64.77;102614.03;1709905;84;20529;-74
2021/04/10 01:58:23;;;;;;;;;;;;;;;4.26;64.74;102625.35;1709908;84;20525;-70
2021/04/10 02:00:55;;;;;;;;;;;;;;;4.19;64.87;102618.33;1709945;84;20575;-71
2021/04/10 02:03:27;;;;;;;;;;;;;;;4.13;64.95;102613.52;1709953;84;20532;-69
2021/04/10 02:05:59;;;;;;;;;;;;;;;4.10;65.18;102615.75;1709813;84;20192;-69
2021/04/10 02:08:32;;;;;;;;;;;;;;;4.12;65.31;102617.80;1705771;84;20193;-69
2021/04/10 02:11:06;;;;;;;;;;;;;;;4.18;65.29;102619.36;1682510;84;20244;-69
2021/04/10 02:13:39;;;;;;;;;;;;;;;4.20;65.25;102620.04;1706100;84;20589;-67
2021/04/10 02:16:12;;;;;;;;;;;;;;;4.25;65.39;102620.89;1709854;84;20572;-69
2021/04/10 02:18:46;;;;;;;;;;;;;;;4.20;65.33;102623.29;1709601;84;20196;-75
2021/04/10 02:21:26;;;;;;;;;;;;;;;4.20;65.31;102620.54;1710061;84;20545;-70
2021/04/10 02:23:53;;;;;;;;;;;;;;;4.21;65.99;102622.28;1682710;84;20532;-69
2021/04/10 02:26:33;;;;;;;;;;;;;;;4.15;66.01;102618.84;1708456;84;20220;-70
2021/04/10 02:29:06;;;;;;;;;;;;;;;4.06;66.04;102616.61;1709839;84;20196;-70
2021/04/10 02:31:41;;;;;;;;;;;;;;;4.00;66.27;102619.16;1709694;84;20304;-71
2021/04/10 02:34:18;;;;;;;;;;;;;;;3.97;66.34;102614.03;1716071;82;20212;-70
2021/04/10 02:36:49;;;;;;;;;;;;;;;3.97;66.96;102621.73;1715170;83;20177;-68
2021/04/10 02:39:22;;;;;;;;;;;;;;;3.99;68.92;102618.83;1709622;84;20252;-68
2021/04/10 02:41:56;;;;;;;;;;;;;;;4.02;69.91;102612.97;1709657;84;20645;-70
2021/04/10 02:44:31;;;;;;;;;;;;;;;4.04;70.28;102604.06;1709814;84;20204;-69
2021/04/10 02:47:05;;;;;;;;;;;;;;;4.09;70.50;102616.25;1706946;84;20192;-68
2021/04/10 02:49:39;;;;;;;;;;;;;;;4.08;70.24;102615.91;1709830;84;20556;-75
2021/04/10 02:52:13;;;;;;;;;;;;;;;4.10;70.23;102619.87;1686263;84;20283;-69
2021/04/10 02:54:47;;;;;;;;;;;;;;;4.13;70.58;102616.27;1689266;84;20192;-69
2021/04/10 02:57:20;;;;;;;;;;;;;;;4.14;70.93;102620.72;1715327;84;20260;-69
2021/04/10 02:59:55;;;;;;;;;;;;;;;4.15;71.12;102614.19;1689853;84;20189;-70
2021/04/10 03:02:26;;;;;;;;;;;;;;;4.26;71.26;102615.23;1715462;84;20211;-70
2021/04/10 03:04:59;;;;;;;;;;;;;;;4.37;71.30;102607.14;1715252;84;20220;-70
2021/04/10 03:07:31;;;;;;;;;;;;;;;4.41;71.33;102613.48;1715341;84;20283;-70
2021/04/10 03:10:03;;;;;;;;;;;;;;;4.41;71.40;102617.61;1715387;84;20195;-72
2021/04/10 03:12:35;;;;;;;;;;;;;;;4.42;71.45;102617.11;1715286;84;20315;-70
2021/04/10 03:15:08;;;;;;;;;;;;;;;4.42;71.43;102608.86;1689768;84;20227;-72
2021/04/10 03:17:41;;;;;;;;;;;;;;;4.35;71.18;102618.30;1715454;84;20648;-68
2021/04/10 03:20:16;;;;;;;;;;;;;;;4.37;71.13;102626.38;1715261;84;20283;-73
2021/04/10 03:22:50;;;;;;;;;;;;;;;4.40;71.05;102626.89;1715433;82;20260;-69
2021/04/10 03:25:26;;;;;;;;;;;;;;;4.39;70.97;102625.19;1714579;84;20295;-70
2021/04/10 03:27:59;;;;;;;;;;;;;;;4.37;70.97;102624.51;1723995;82;20601;-70
2021/04/10 03:30:31;;;;;;;;;;;;;;;4.39;70.90;102624.34;1735155;83;20185;-76
2021/04/10 03:33:02;;;;;;;;;;;;;;;4.38;70.75;102626.72;1735194;83;20293;-68
2021/04/10 03:35:35;;;;;;;;;;;;;;;4.29;70.67;102634.64;1735113;83;20418;-68
2021/04/10 03:38:07;;;;;;;;;;;;;;;4.16;70.83;102630.19;1735186;83;20189;-69
2021/04/10 03:40:40;;;;;;;;;;;;;;;4.06;71.13;102630.84;1735227;83;20289;-73
2021/04/10 03:43:13;;;;;;;;;;;;;;;4.02;71.26;102630.84;1735134;83;20210;-70
2021/04/10 03:45:49;;;;;;;;;;;;;;;3.92;71.44;102624.13;1735055;83;20292;-70
2021/04/10 03:48:22;;;;;;;;;;;;;;;3.96;71.63;102630.14;1732021;82;20188;-70
2021/04/10 03:50:55;;;;;;;;;;;;;;;4.05;71.62;102634.63;1727774;83;20593;-70
2021/04/10 03:53:27;;;;;;;;;;;;;;;4.08;71.51;102632.90;1735666;82;20185;-74
2021/04/10 03:56:03;;;;;;;;;;;;;;;4.10;71.41;102631.70;1736282;83;20518;-69
2021/04/10 03:58:38;;;;;;;;;;;;;;;4.02;71.36;102629.46;1736067;83;20612;-71
2021/04/10 04:01:10;;;;;;;;;;;;;;;3.99;71.65;102633.44;1736213;83;20510;-70
2021/04/10 04:03:43;;;;;;;;;;;;;;;4.06;71.82;102637.72;1736217;83;20265;-70
2021/04/10 04:06:14;;;;;;;;;;;;;;;4.16;71.87;102637.05;1736116;83;20221;-69
2021/04/10 04:08:46;;;;;;;;;;;;;;;4.26;71.79;102641.84;1736074;82;20225;-69
2021/04/10 04:11:18;;;;;;;;;;;;;;;4.36;71.83;102639.80;1735935;83;20196;-69
2021/04/10 04:13:51;;;;;;;;;;;;;;;4.51;71.85;102639.42;1733313;82;20209;-70
2021/04/10 04:16:24;;;;;;;;;;;;;;;4.63;71.51;102644.92;1726325;83;20536;-75
2021/04/10 04:18:55;;;;;;;;;;;;;;;4.67;71.26;102645.80;1718343;83;20207;-69
2021/04/10 04:21:27;;;;;;;;;;;;;;;4.70;71.16;102647.34;1719312;82;20216;-69
2021/04/10 04:23:58;;;;;;;;;;;;;;;4.76;71.09;102645.27;1729574;82;20187;-68
2021/04/10 04:26:30;;;;;;;;;;;;;;;4.83;71.07;102653.16;1731467;82;20232;-74
2021/04/10 04:29:02;;;;;;;;;;;;;;;4.98;71.32;102659.14;1718539;83;20227;-72
2021/04/10 04:31:33;;;;;;;;;;;;;;;5.10;71.48;102656.86;1721203;82;20548;-69
2021/04/10 04:34:05;;;;;;;;;;;;;;;5.23;71.46;102648.90;1748155;82;20253;-69
2021/04/10 04:36:36;;;;;;;;;;;;;;;5.34;71.46;102653.52;1728283;82;20243;-69
2021/04/10 04:39:09;;;;;;;;;;;;;;;5.46;71.31;102652.09;1721948;83;20198;-69
2021/04/10 04:41:41;;;;;;;;;;;;;;;5.53;71.12;102653.59;1736043;83;20177;-67
2021/04/10 04:44:13;;;;;;;;;;;;;;;5.59;71.10;102648.24;1718465;83;20263;-69
2021/04/10 04:46:44;;;;;;;;;;;;;;;5.71;70.95;102650.06;1718388;83;20241;-69
2021/04/10 04:49:16;;;;;;;;;;;;;;;5.92;71.09;102651.71;1722756;82;20530;-69
2021/04/10 04:51:48;;;;;;;;;;;;;;;6.38;70.89;102649.28;1748184;82;20222;-69
2021/04/10 04:54:19;;;;;;;;;;;;;;;6.97;70.25;102653.91;1715606;82;20529;-71
2021/04/10 04:56:51;;;;;;;;;;;;;;;7.64;68.76;102654.45;1713604;83;20288;-69
2021/04/10 04:59:22;;;;;;;;;;;;;;;8.28;67.17;102657.70;1719450;83;20209;-78
2021/04/10 05:01:54;;;;;;;;;;;;;;;8.93;65.55;102654.12;1709927;84;20510;-70
2021/04/10 05:04:25;;;;;;;;;;;;;;;9.60;63.64;102657.95;1718686;82;20280;-69
2021/04/10 05:07:00;;;;;;;;;;;;;;;10.25;60.17;102656.84;1713633;83;20188;-70
2021/04/10 05:09:31;;;;;;;;;;;;;;;10.76;57.97;102649.63;1710115;84;20188;-72
2021/04/10 05:12:03;;;;;;;;;;;;;;;11.25;56.55;102655.58;1710028;84;20181;-67
2021/04/10 05:14:35;;;;;;;;;;;;;;;11.70;55.15;102656.04;1710549;84;20196;-71
2021/04/10 05:17:07;;;;;;;;;;;;;;;12.16;53.02;102655.27;1714858;82;20213;-70
2021/04/10 05:19:38;;;;;;;;;;;;;;;12.48;52.12;102652.81;1710069;83;20532;-70
2021/04/10 05:22:11;;;;;;;;;;;;;;;12.74;50.95;102652.64;1709996;83;20173;-70
2021/04/10 05:24:42;;;;;;;;;;;;;;;13.01;49.75;102651.35;1729971;83;20214;-71
2021/04/10 05:27:14;;;;;;;;;;;;;;;13.31;48.34;102653.74;1732124;83;20602;-72
2021/04/10 05:29:46;;;;;;;;;;;;;;;13.58;47.23;102652.36;1732110;83;20198;-72
2021/04/10 05:32:17;;;;;;;;;;;;;;;13.76;46.56;102650.13;1723266;82;20275;-70
2021/04/10 05:34:54;;;;;;;;;;;;;;;13.91;45.60;102647.77;1709808;84;20190;-69
2021/04/10 05:37:26;;;;;;;;;;;;;;;14.00;45.26;102650.58;1709809;83;20181;-69
2021/04/10 05:40:02;;;;;;;;;;;;;;;14.05;44.82;102644.58;1710626;82;20241;-71
2021/04/10 05:42:34;;;;;;;;;;;;;;;14.22;44.92;102650.39;1720974;82;20221;-78
2021/04/10 05:45:06;;;;;;;;;;;;;;;14.35;44.54;102645.47;1713194;82;20210;-71
2021/04/10 05:47:39;;;;;;;;;;;;;;;14.46;43.33;102645.20;1726100;82;20221;-72
2021/04/10 05:50:11;;;;;;;;;;;;;;;14.64;43.30;102648.79;1724365;82;20193;-73
2021/04/10 05:52:44;;;;;;;;;;;;;;;14.75;42.65;102653.56;1718570;82;20236;-70
2021/04/10 05:55:16;;;;;;;;;;;;;;;14.87;42.01;102646.05;1720232;82;20237;-69
2021/04/10 05:57:50;;;;;;;;;;;;;;;15.03;41.16;102653.71;1724908;82;20233;-78
2021/04/10 06:00:23;;;;;;;;;;;;;;;15.13;40.55;102649.78;1716675;82;20364;-72
2021/04/10 06:02:55;;;;;;;;;;;;;;;15.23;40.71;102645.84;1716016;82;20244;-72
2021/04/10 06:05:27;;;;;;;;;;;;;;;15.37;40.72;102651.52;1717507;82;20315;-71
2021/04/10 06:08:00;;;;;;;;;;;;;;;15.48;40.41;102642.80;1713261;82;20243;-69
2021/04/10 06:10:32;;;;;;;;;;;;;;;15.55;40.58;102642.12;1721072;82;20269;-69
2021/04/10 06:13:04;;;;;;;;;;;;;;;15.70;40.38;102643.31;1712681;82;20242;-72
2021/04/10 06:15:37;;;;;;;;;;;;;;;15.86;39.58;102650.97;1717227;82;20345;-72
2021/04/10 06:18:09;;;;;;;;;;;;;;;16.09;38.70;102651.73;1720584;82;20356;-71
2021/04/10 06:20:41;;;;;;;;;;;;;;;16.31;38.31;102650.49;1719718;82;20213;-79
2021/04/10 06:23:12;;;;;;;;;;;;;;;16.43;38.11;102640.11;1714787;83;20626;-73
2021/04/10 06:25:44;;;;;;;;;;;;;;;16.63;37.93;102644.72;1722494;82;20525;-75
2021/04/10 06:28:16;;;;;;;;;;;;;;;16.85;37.19;102643.72;1721260;83;20295;-72
2021/04/10 06:30:47;;;;;;;;;;;;;;;17.08;36.50;102644.09;1719669;82;20221;-72
2021/04/10 06:33:23;;;;;;;;;;;;;;;17.27;36.00;102652.55;1720519;82;20229;-74
2021/04/10 06:35:55;;;;;;;;;;;;;;;17.36;36.28;102649.59;1721127;82;20521;-70
2021/04/10 06:38:27;;;;;;;;;;;;;;;17.45;36.28;102655.97;1718290;82;20184;-71
2021/04/10 06:40:59;;;;;;;;;;;;;;;17.52;35.55;102651.56;1719408;83;20220;-71
2021/04/10 06:43:32;;;;;;;;;;;;;;;17.53;35.32;102654.13;1721563;82;20184;-72
2021/04/10 06:46:05;;;;;;;;;;;;;;;17.56;34.97;102654.99;1719409;82;20180;-73
2021/04/10 06:48:41;;;;;;;;;;;;;;;17.59;34.20;102648.88;1720077;82;20221;-73
2021/04/10 06:51:15;;;;;;;;;;;;;;;17.64;34.21;102653.70;1719725;82;20195;-72
2021/04/10 06:53:48;;;;;;;;;;;;;;;17.73;33.96;102657.21;1722748;82;20582;-72
2021/04/10 06:56:22;;;;;;;;;;;;;;;17.78;33.57;102656.42;1723591;82;20216;-68
2021/04/10 06:59:16;;;;;;;;;;;;;;;17.75;33.49;102662.58;1717848;82;20227;-69
2021/04/10 07:01:47;;;;;;;;;;;;;;;17.61;33.54;102662.67;1720041;82;20324;-71
2021/04/10 07:04:19;;;;;;;;;;;;;;;17.37;33.87;102659.20;1724603;83;20252;-72
2021/04/10 07:06:51;;;;;;;;;;;;;;;17.24;34.13;102662.91;1726631;82;20577;-73
2021/04/10 07:09:24;;;;;;;;;;;;;;;17.18;34.45;102653.53;1725473;82;20217;-76
2021/04/10 07:11:58;;;;;;;;;;;;;;;17.11;35.06;102667.43;1729408;82;20277;-77
2021/04/10 07:14:31;;;;;;;;;;;;;;;17.01;34.72;102661.67;1724248;82;20830;-78
2021/04/10 07:17:03;;;;;;;;;;;;;;;17.01;34.86;102660.27;1726650;82;20219;-77
2021/04/10 07:19:35;;;;;;;;;;;;;;;17.11;34.22;102668.84;1726202;82;20192;-74
2021/04/10 07:22:12;;;;;;;;;;;;;;;17.03;34.29;102663.66;1726813;82;20233;-76
2021/04/10 07:24:47;;;;;;;;;;;;;;;16.89;33.94;102660.90;1726961;82;20265;-77
2021/04/10 07:27:20;;;;;;;;;;;;;;;16.78;33.80;102663.22;1726200;82;20287;-79
2021/04/10 07:29:53;;;;;;;;;;;;;;;16.66;33.05;102661.89;1714408;82;20273;-76
2021/04/10 07:32:34;;;;;;;;;;;;;;;16.46;32.44;102660.66;1725100;82;20649;-79
2021/04/10 07:35:09;;;;;;;;;;;;;;;16.33;31.46;102667.94;1725888;82;20324;-77
2021/04/10 07:37:43;;;;;;;;;;;;;;;16.19;31.84;102667.37;1724183;83;20316;-75
2021/04/10 07:40:26;;;;;;;;;;;;;;;16.01;31.66;102666.69;1728282;82;20632;-77
2021/04/10 07:43:02;;;;;;;;;;;;;;;15.88;32.40;102668.37;1724892;83;20336;-79
2021/04/10 07:45:36;;;;;;;;;;;;;;;15.78;32.38;102670.97;1722936;82;20229;-79
2021/04/10 07:48:14;;;;;;;;;;;;;;;15.69;31.61;102668.76;1723613;83;20335;-79
2021/04/10 07:50:44;;;;;;;;;;;;;;;15.56;31.76;102665.69;1731566;82;20581;-70
2021/04/10 07:53:30;;;;;;;;;;;;;;;15.55;31.86;102668.73;1726399;82;20188;-71
2021/04/10 07:56:03;;;;;;;;;;;;;;;15.55;31.82;102663.98;1726998;82;20258;-71
2021/04/10 07:58:37;;;;;;;;;;;;;;;15.49;31.95;102667.77;1724447;82;20188;-73
2021/04/10 08:01:11;;;;;;;;;;;;;;;15.39;31.28;102670.31;1715189;84;20279;-78
2021/04/10 08:03:56;;;;;;;;;;;;;;;15.24;31.55;102671.86;1715240;84;20228;-70
2021/04/10 08:06:24;;;;;;;;;;;;;;;15.17;32.22;102667.80;1721649;82;20295;-71
2021/04/10 08:08:57;;;;;;;;;;;;;;;15.13;32.12;102667.97;1714634;84;20332;-73
2021/04/10 08:11:37;;;;;;;;;;;;;;;15.07;31.85;102663.87;1722498;82;20333;-74
2021/04/10 08:14:15;;;;;;;;;;;;;;;15.00;31.90;102663.14;1725719;83;20308;-72
2021/04/10 08:16:53;;;;;;;;;;;;;;;14.85;31.41;102671.99;1725480;83;20358;-71
2021/04/10 08:19:31;;;;;;;;;;;;;;;14.78;31.42;102670.42;1722036;83;20636;-73
2021/04/10 08:22:08;;;;;;;;;;;;;;;14.76;31.89;102664.19;1704044;82;20926;-76
2021/04/10 08:24:47;;;;;;;;;;;;;;;14.72;32.32;102665.78;1717458;82;20284;-72
2021/04/10 08:27:15;;;;;;;;;;;;;;;14.62;31.89;102658.51;1729567;82;20288;-72
2021/04/10 08:29:46;;;;;;;;;;;;;;;14.53;31.62;102656.59;1715189;84;20340;-71
2021/04/10 08:32:18;;;;;;;;;;;;;;;14.57;31.48;102652.24;1726607;83;20186;-73
2021/04/10 08:34:50;;;;;;;;;;;;;;;14.57;31.71;102649.98;1718133;83;20264;-73
2021/04/10 08:37:21;;;;;;;;;;;;;;;14.53;31.49;102655.20;1715313;84;20267;-70
2021/04/10 08:39:54;;;;;;;;;;;;;;;14.40;31.55;102663.78;1715354;84;20581;-72
2021/04/10 08:42:26;;;;;;;;;;;;;;;14.28;32.03;102661.48;1719969;83;20181;-73
2021/04/10 08:44:58;;;;;;;;;;;;;;;14.23;32.60;102652.95;1731747;83;20252;-73
2021/04/10 08:47:29;;;;;;;;;;;;;;;14.21;31.22;102659.33;1725221;83;20257;-72
2021/04/10 08:50:01;;;;;;;;;;;;;;;14.13;31.41;102658.20;1729734;83;20185;-72
2021/04/10 08:52:34;;;;;;;;;;;;;;;14.02;31.22;102656.77;1726010;82;20257;-74
2021/04/10 08:55:09;;;;;;;;;;;;;;;13.94;30.96;102653.74;1729719;82;20637;-72
2021/04/10 08:57:43;;;;;;;;;;;;;;;13.91;31.50;102657.02;1723700;83;20339;-72
2021/04/10 09:00:24;;;;;;;;;;;;;;;13.87;31.37;102659.95;1723431;81;20253;-70
2021/04/10 09:02:58;;;;;;;;;;;;;;;13.81;30.99;102660.89;1717352;82;20371;-72
2021/04/10 09:05:47;;;;;;;;;;;;;;;13.75;31.47;102658.20;1719447;82;20541;-74
2021/04/10 09:08:28;;;;;;;;;;;;;;;13.64;30.96;102663.98;1717070;81;20344;-71
2021/04/10 09:11:03;;;;;;;;;;;;;;;13.54;31.17;102668.41;1720370;83;20212;-72
2021/04/10 09:13:52;;;;;;;;;;;;;;;13.41;31.13;102661.05;1719179;81;20197;-70
2021/04/10 09:16:26;;;;;;;;;;;;;;;13.32;30.78;102664.37;1731874;82;20236;-68
2021/04/10 09:19:14;;;;;;;;;;;;;;;13.20;31.14;102658.67;1719401;83;20283;-72
2021/04/10 09:21:55;;;;;;;;;;;;;;;13.11;31.54;102650.30;1716674;82;20222;-74
2021/04/10 09:24:41;;;;;;;;;;;;;;;13.12;31.78;102648.34;1734697;82;20190;-69
2021/04/10 09:27:20;;;;;;;;;;;;;;;13.17;31.71;102660.55;1723113;82;20186;-70
2021/04/10 09:30:02;;;;;;;;;;;;;;;13.16;31.67;102651.88;1715833;81;20186;-72
2021/04/10 09:32:39;;;;;;;;;;;;;;;13.14;31.15;102643.42;1722663;82;20273;-70
2021/04/10 09:35:16;;;;;;;;;;;;;;;13.09;31.52;102638.50;1722566;82;20304;-73
2021/04/10 09:37:49;;;;;;;;;;;;;;;13.11;31.53;102636.36;1721157;82;20184;-70
2021/04/10 09:40:24;;;;;;;;;;;;;;;13.14;31.90;102647.04;1718438;82;20534;-72
2021/04/10 09:43:06;;;;;;;;;;;;;;;13.19;31.50;102633.27;1709355;83;20193;-68
2021/04/10 09:45:39;;;;;;;;;;;;;;;13.25;30.68;102635.66;1709530;84;20228;-70
2021/04/10 09:48:15;;;;;;;;;;;;;;;13.28;30.28;102647.24;1709487;84;20228;-70
2021/04/10 09:50:53;;;;;;;;;;;;;;;13.17;29.87;102642.94;1709521;84;20184;-71
2021/04/10 09:53:26;;;;;;;;;;;;;;;13.01;29.87;102634.63;1707365;84;20224;-69
2021/04/10 09:56:00;;;;;;;;;;;;;;;12.89;30.18;102626.66;1705151;84;20560;-70
2021/04/10 09:58:40;;;;;;;;;;;;;;;12.79;30.21;102629.13;1715831;82;20209;-71
2021/04/10 10:01:18;;;;;;;;;;;;;;;12.65;30.00;102619.14;1727844;82;20192;-71
2021/04/10 10:03:50;;;;;;;;;;;;;;;12.56;30.57;102627.48;1712688;84;20259;-69
2021/04/10 10:06:36;;;;;;;;;;;;;;;12.57;30.61;102628.31;1717366;82;20185;-69
2021/04/10 10:09:22;;;;;;;;;;;;;;;12.61;29.95;102633.23;1733060;82;20246;-69
2021/04/10 10:11:56;;;;;;;;;;;;;;;12.58;29.99;102621.13;1727649;82;20222;-71
2021/04/10 10:14:39;;;;;;;;;;;;;;;12.58;29.89;102643.42;1739419;82;20282;-72
2021/04/10 10:17:11;;;;;;;;;;;;;;;12.60;28.92;102629.27;1674618;82;20170;-72
2021/04/10 10:19:43;;;;;;;;;;;;;;;12.57;29.03;102636.16;1735084;82;20297;-72
2021/04/10 10:22:26;;;;;;;;;;;;;;;12.46;30.15;102614.58;1718426;82;20322;-72
2021/04/10 10:25:04;;;;;;;;;;;;;;;12.40;30.60;102621.05;1717075;82;20197;-72
2021/04/10 10:27:39;;;;;;;;;;;;;;;12.38;30.77;102620.44;1722335;82;20609;-70
2021/04/10 10:30:19;;;;;;;;;;;;;;;12.41;30.61;102615.79;1723983;82;20534;-72
2021/04/10 10:32:58;;;;;;;;;;;;;;;12.44;30.28;102621.45;1718147;82;20212;-71
2021/04/10 10:35:56;;;;;;;;;;;;;;;12.40;29.92;102621.61;1712979;82;20197;-70
2021/04/10 10:38:33;;;;;;;;;;;;;;;12.34;30.18;102621.12;1727173;81;20584;-70
2021/04/10 10:41:09;;;;;;;;;;;;;;;12.35;30.00;102615.86;1756137;81;20244;-69
2021/04/10 10:43:40;;;;;;;;;;;;;;;12.35;29.48;102614.46;1722993;82;20299;-70
2021/04/10 10:46:19;;;;;;;;;;;;;;;12.33;29.86;102603.53;1716120;82;20227;-71
2021/04/10 10:48:51;;;;;;;;;;;;;;;12.34;30.33;102609.42;1709193;84;20533;-74
2021/04/10 10:51:24;;;;;;;;;;;;;;;12.31;30.60;102607.09;1709664;83;20215;-71
2021/04/10 10:53:55;;;;;;;;;;;;;;;12.31;30.22;102602.92;1709705;84;20185;-71
2021/04/10 10:56:30;;;;;;;;;;;;;;;12.33;30.14;102604.93;1709873;84;20192;-69
2021/04/10 10:59:06;;;;;;;;;;;;;;;12.38;28.82;102602.84;1709791;84;20505;-71
2021/04/10 11:01:40;;;;;;;;;;;;;;;12.38;28.64;102594.49;1709595;84;20204;-70
2021/04/10 11:04:17;;;;;;;;;;;;;;;12.41;28.62;102596.28;1707498;83;20248;-69
2021/04/10 11:06:51;;;;;;;;;;;;;;;12.41;28.10;102584.31;1702299;83;20264;-71
2021/04/10 11:09:31;;;;;;;;;;;;;;;12.41;27.99;102591.27;1702217;84;20300;-69
2021/04/10 11:12:08;;;;;;;;;;;;;;;12.42;27.50;102588.23;1702162;84;20261;-72
2021/04/10 11:14:47;;;;;;;;;;;;;;;12.43;26.92;102589.97;1702263;83;20272;-70
2021/04/10 11:17:31;;;;;;;;;;;;;;;12.39;27.11;102592.88;1702265;84;20308;-70
2021/04/10 11:20:23;;;;;;;;;;;;;;;12.40;27.44;102576.48;1702043;84;20181;-70
2021/04/10 11:23:09;;;;;;;;;;;;;;;12.39;27.40;102573.38;1702108;84;20265;-70
2021/04/10 11:25:58;;;;;;;;;;;;;;;12.46;26.87;102574.18;1702104;83;20278;-72
2021/04/10 11:28:31;;;;;;;;;;;;;;;12.52;27.37;102567.70;1702112;84;20221;-70
2021/04/10 11:31:09;;;;;;;;;;;;;;;12.58;27.82;102577.07;1701997;84;20338;-70
2021/04/10 11:33:41;;;;;;;;;;;;;;;12.56;27.80;102573.67;1702297;84;20252;-71
2021/04/10 11:36:12;;;;;;;;;;;;;;;12.54;27.31;102571.09;1702149;84;20260;-70
2021/04/10 11:39:03;;;;;;;;;;;;;;;12.51;27.17;102563.73;1702063;84;20197;-70
2021/04/10 11:41:47;;;;;;;;;;;;;;;12.47;27.59;102550.80;1702189;84;20237;-71
2021/04/10 11:44:19;;;;;;;;;;;;;;;12.49;27.50;102559.81;1702152;84;20324;-70
2021/04/10 11:46:58;;;;;;;;;;;;;;;12.45;27.60;102557.16;1702206;84;20225;-68
2021/04/10 11:49:30;;;;;;;;;;;;;;;12.44;27.85;102547.63;1702032;84;20185;-70
2021/04/10 11:52:11;;;;;;;;;;;;;;;12.44;28.23;102545.70;1702066;84;20260;-66
2021/04/10 11:54:42;;;;;;;;;;;;;;;12.49;28.62;102546.41;1702067;84;20256;-71
2021/04/10 11:57:32;;;;;;;;;;;;;;;12.49;26.90;102547.80;1702291;84;20265;-71
2021/04/10 12:00:11;;;;;;;;;;;;;;;12.44;26.87;102551.80;1702248;84;20205;-69
2021/04/10 12:02:47;;;;;;;;;;;;;;;12.38;27.60;102534.07;1702055;84;20296;-71
2021/04/10 12:05:20;;;;;;;;;;;;;;;12.40;28.09;102536.64;1704779;84;20644;-71
2021/04/10 12:08:12;;;;;;;;;;;;;;;12.43;28.21;102537.03;1717015;82;20196;-69
2021/04/10 12:10:48;;;;;;;;;;;;;;;12.48;28.69;102537.18;1724005;82;20281;-70
2021/04/10 12:13:22;;;;;;;;;;;;;;;12.49;27.42;102526.38;1720254;82;20280;-69
2021/04/10 12:15:58;;;;;;;;;;;;;;;12.47;28.24;102525.73;1718424;82;20190;-68
2021/04/10 12:18:30;;;;;;;;;;;;;;;12.51;28.21;102519.16;1726054;82;20292;-70
2021/04/10 12:21:04;;;;;;;;;;;;;;;12.57;28.01;102517.71;1719025;82;20249;-70
2021/04/10 12:23:36;;;;;;;;;;;;;;;12.63;27.92;102515.41;1724934;82;20670;-71
2021/04/10 12:26:08;;;;;;;;;;;;;;;12.69;27.80;102517.28;1720891;82;20296;-69
2021/04/10 12:28:40;;;;;;;;;;;;;;;12.74;27.68;102520.76;1719670;83;20213;-69
2021/04/10 12:31:12;;;;;;;;;;;;;;;12.79;28.03;102522.32;1721626;82;20261;-68
2021/04/10 12:33:47;;;;;;;;;;;;;;;12.81;27.77;102519.62;1731730;83;20578;-67
2021/04/10 12:36:19;;;;;;;;;;;;;;;12.80;27.13;102517.92;1732568;83;20253;-68
2021/04/10 12:38:51;;;;;;;;;;;;;;;12.73;27.20;102514.87;1729563;83;20226;-69
2021/04/10 12:41:23;;;;;;;;;;;;;;;12.68;27.49;102507.22;1722905;82;20190;-71
2021/04/10 12:43:55;;;;;;;;;;;;;;;12.66;27.46;102510.75;1709605;82;20518;-68
2021/04/10 12:46:27;;;;;;;;;;;;;;;12.66;27.08;102516.33;1708063;82;20224;-71
2021/04/10 12:48:59;;;;;;;;;;;;;;;12.67;27.45;102519.45;1713973;83;20611;-69
2021/04/10 12:51:32;;;;;;;;;;;;;;;12.70;27.76;102505.03;1718349;82;20316;-70
2021/04/10 12:54:04;;;;;;;;;;;;;;;12.75;27.64;102509.39;1701360;83;20280;-67
2021/04/10 12:56:35;;;;;;;;;;;;;;;12.76;27.42;102501.33;1714008;82;20250;-71
2021/04/10 12:59:07;;;;;;;;;;;;;;;12.80;27.77;102510.95;1723457;82;20245;-69
2021/04/10 13:01:40;;;;;;;;;;;;;;;12.81;28.03;102500.10;1709402;83;20182;-71
2021/04/10 13:04:11;;;;;;;;;;;;;;;12.83;29.04;102506.29;1707861;83;20324;-68
2021/04/10 13:06:44;;;;;;;;;;;;;;;12.83;27.98;102507.68;1725959;82;20265;-69
2021/04/10 13:09:16;;;;;;;;;;;;;;;12.77;27.42;102501.63;1728266;82;20191;-68
2021/04/10 13:11:49;;;;;;;;;;;;;;;12.72;27.42;102504.25;1727827;82;20328;-67
2021/04/10 13:14:24;;;;;;;;;;;;;;;12.67;27.39;102497.68;1728631;83;20609;-73
2021/04/10 13:16:56;;;;;;;;;;;;;;;12.66;27.37;102497.38;1724169;82;20221;-68
2021/04/10 13:19:28;;;;;;;;;;;;;;;12.68;27.37;102497.98;1721495;82;20196;-67